createdAt,value
2019-06-07T00:02:05.900Z,8.33
2019-06-07T00:04:38.524Z,9.18
2019-06-07T00:07:12.575Z,8.33
2019-06-07T00:09:45.710Z,11.12
2019-06-07T00:12:21.532Z,8.20
2019-06-07T00:14:52.852Z,6.10
2019-06-07T00:19:55.901Z,6.87
2019-06-07T00:22:33.777Z,7.33
2019-06-07T00:25:12.507Z,8.28
2019-06-07T00:27:44.128Z,9.68
2019-06-07T00:30:39.579Z,9.98
2019-06-07T00:32:51.975Z,10.78
2019-06-07T00:35:25.024Z,7.42
2019-06-07T00:40:32.105Z,10.95
2019-06-07T00:43:02.222Z,10.68
2019-06-07T00:45:35.311Z,8.70
2019-06-07T00:48:07.999Z,9.95
2019-06-07T00:50:41.164Z,9.60
2019-06-07T00:53:19.730Z,8.23
2019-06-07T00:55:49.079Z,10.05
2019-06-07T00:58:27.686Z,9.35
2019-06-07T01:00:58.088Z,14.93
2019-06-07T01:03:30.351Z,8.50
2019-06-07T01:06:03.265Z,12.90
2019-06-07T01:08:35.687Z,7.28
2019-06-07T01:11:08.445Z,9.85
2019-06-07T01:13:40.684Z,8.68
2019-06-07T01:16:13.839Z,10.48
2019-06-07T01:18:51.182Z,9.10
2019-06-07T01:21:24.844Z,9.45
2019-06-07T01:24:10.941Z,9.00
2019-06-07T01:26:35.577Z,10.08
2019-06-07T01:29:08.018Z,8.48
2019-06-07T01:31:41.973Z,8.90
2019-06-07T01:34:15.888Z,9.98
2019-06-07T01:36:49.135Z,8.45
2019-06-07T01:39:23.993Z,10.43
2019-06-07T01:41:56.245Z,7.95
2019-06-07T01:44:30.900Z,11.05
2019-06-07T01:47:03.338Z,8.48
2019-06-07T01:49:35.562Z,7.45
2019-06-07T01:52:08.398Z,12.33
2019-06-07T01:54:55.926Z,5.85
2019-06-07T01:57:31.059Z,12.07
2019-06-07T01:59:50.184Z,9.35
2019-06-07T02:02:23.464Z,9.53
2019-06-07T02:04:56.996Z,11.08
2019-06-07T02:07:32.783Z,9.80
2019-06-07T02:10:04.106Z,10.30
2019-06-07T02:12:43.082Z,13.62
2019-06-07T02:15:12.007Z,8.80
2019-06-07T02:17:44.384Z,9.83
2019-06-07T02:20:17.077Z,9.17
2019-06-07T02:22:49.410Z,9.30
2019-06-07T02:25:45.969Z,10.18
2019-06-07T02:28:25.921Z,9.05
2019-06-07T02:30:47.231Z,9.03
2019-06-07T02:33:05.389Z,11.00
2019-06-07T02:35:40.499Z,9.63
2019-06-07T02:38:12.120Z,9.33
2019-06-07T02:40:44.188Z,6.62
2019-06-07T02:43:17.706Z,6.85
2019-06-07T02:45:50.359Z,10.98
2019-06-07T02:48:24.560Z,6.53
2019-06-07T02:50:58.606Z,9.28
2019-06-07T02:53:39.525Z,11.12
2019-06-07T02:56:55.058Z,8.63
2019-06-07T02:58:42.162Z,7.72
2019-06-07T03:01:15.416Z,8.78
2019-06-07T03:03:48.176Z,9.20
2019-06-07T03:06:21.751Z,9.30
2019-06-07T03:08:56.387Z,9.95
2019-06-07T03:11:32.325Z,9.20
2019-06-07T03:14:06.236Z,9.45
2019-06-07T03:16:44.480Z,11.38
2019-06-07T03:19:26.462Z,10.95
2019-06-07T03:21:59.824Z,8.70
2019-06-07T03:27:34.199Z,8.70
2019-06-07T03:29:42.096Z,11.00
2019-06-07T03:32:14.247Z,11.88
2019-06-07T03:34:46.307Z,11.37
2019-06-07T03:37:18.411Z,16.75
2019-06-07T03:39:50.646Z,13.10
2019-06-07T03:42:23.239Z,9.88
2019-06-07T03:44:55.623Z,12.47
2019-06-07T03:47:30.746Z,9.03
2019-06-07T03:50:02.257Z,11.08
2019-06-07T03:52:38.194Z,11.43
2019-06-07T03:55:08.973Z,10.63
2019-06-07T03:58:29.940Z,8.18
2019-06-07T04:00:16.510Z,14.07
2019-06-07T04:02:49.183Z,12.37
2019-06-07T04:05:21.861Z,12.88
2019-06-07T04:07:54.335Z,11.20
2019-06-07T04:10:44.664Z,11.95
2019-06-07T04:13:01.457Z,8.73
2019-06-07T04:15:37.893Z,11.50
2019-06-07T04:18:08.664Z,13.55
2019-06-07T04:20:41.612Z,11.00
2019-06-07T04:23:27.580Z,15.80
2019-06-07T04:25:48.055Z,10.78
2019-06-07T04:28:20.217Z,10.73
2019-06-07T04:30:52.743Z,9.25
2019-06-07T04:33:25.114Z,16.25
2019-06-07T04:35:57.869Z,15.90
2019-06-07T04:38:37.965Z,10.63
2019-06-07T04:41:08.864Z,12.65
2019-06-07T04:43:44.337Z,10.32
2019-06-07T04:46:19.966Z,13.35
2019-06-07T04:48:53.873Z,12.80
2019-06-07T04:51:30.137Z,13.50
2019-06-07T04:54:03.540Z,11.90
2019-06-07T04:56:40.822Z,12.90
2019-06-07T04:59:10.491Z,13.03
2019-06-07T05:01:42.885Z,12.00
2019-06-07T05:04:14.886Z,11.55
2019-06-07T05:06:48.163Z,12.47
2019-06-07T05:09:20.783Z,11.40
2019-06-07T05:11:53.345Z,13.30
2019-06-07T05:14:26.143Z,12.10
2019-06-07T05:16:59.695Z,13.72
2019-06-07T05:19:35.315Z,14.40
2019-06-07T05:22:06.805Z,13.00
2019-06-07T05:24:41.560Z,13.95
2019-06-07T05:27:18.745Z,10.80
2019-06-07T05:30:09.670Z,11.90
2019-06-07T05:32:26.801Z,10.75
2019-06-07T05:34:58.886Z,10.03
2019-06-07T05:37:33.417Z,9.85
2019-06-07T05:40:06.444Z,11.68
2019-06-07T05:42:42.823Z,9.43
2019-06-07T05:45:15.143Z,12.15
2019-06-07T05:47:51.141Z,11.28
2019-06-07T05:50:39.315Z,12.80
2019-06-07T05:52:55.925Z,11.88
2019-06-07T05:55:28.394Z,10.90
2019-06-07T05:58:01.652Z,12.07
2019-06-07T06:00:36.855Z,9.30
2019-06-07T06:03:09.966Z,11.53
2019-06-07T06:05:50.272Z,11.88
2019-06-07T06:08:17.133Z,10.55
2019-06-07T06:10:49.406Z,10.10
2019-06-07T06:13:22.622Z,10.70
2019-06-07T06:16:01.722Z,10.25
2019-06-07T06:18:31.783Z,9.65
2019-06-07T06:21:18.771Z,10.32
2019-06-07T06:23:42.390Z,9.73
2019-06-07T06:26:13.368Z,12.85
2019-06-07T06:28:46.451Z,10.50
2019-06-07T06:31:19.122Z,8.50
2019-06-07T06:33:52.308Z,8.40
2019-06-07T06:36:25.637Z,8.58
2019-06-07T06:38:58.601Z,7.35
2019-06-07T06:41:30.966Z,8.63
2019-06-07T06:44:04.041Z,7.28
2019-06-07T06:46:41.088Z,7.12
2019-06-07T06:49:11.240Z,12.37
2019-06-07T06:51:50.049Z,8.00
2019-06-07T06:54:39.590Z,7.73
2019-06-07T06:56:53.339Z,8.43
2019-06-07T06:59:38.550Z,7.97
2019-06-07T07:01:59.867Z,8.60
2019-06-07T07:04:32.276Z,9.63
2019-06-07T07:07:04.794Z,6.62
2019-06-07T07:09:37.815Z,7.15
2019-06-07T07:12:13.024Z,8.17
2019-06-07T07:14:47.036Z,6.77
2019-06-07T07:17:18.935Z,5.73
2019-06-07T07:22:24.905Z,5.80
2019-06-07T07:24:57.055Z,5.40
2019-06-07T07:27:29.374Z,5.53
2019-06-07T07:30:35.531Z,6.67
2019-06-07T07:32:35.766Z,5.77
2019-06-07T07:35:08.714Z,7.53
2019-06-07T07:37:40.662Z,7.33
2019-06-07T07:40:55.656Z,10.25
2019-06-07T07:42:49.608Z,6.60
2019-06-07T07:45:21.468Z,9.20
2019-06-07T07:48:08.173Z,6.28
2019-06-07T07:50:29.507Z,7.50
2019-06-07T07:53:02.634Z,6.57
2019-06-07T07:55:35.412Z,7.57
2019-06-07T07:58:07.930Z,6.40
2019-06-07T08:01:07.902Z,8.50
2019-06-07T08:03:15.284Z,8.37
2019-06-07T08:05:49.186Z,7.00
2019-06-07T08:08:22.254Z,6.00
2019-06-07T08:10:58.520Z,5.42
2019-06-07T08:13:28.626Z,6.60
2019-06-07T08:16:09.413Z,8.37
2019-06-07T08:18:35.312Z,7.47
2019-06-07T08:21:23.739Z,5.27
2019-06-07T08:23:42.275Z,5.10
2019-06-07T08:28:45.393Z,5.92
2019-06-07T08:31:17.225Z,5.50
2019-06-07T08:33:50.274Z,12.63
2019-06-07T08:36:40.787Z,5.05
2019-06-07T08:39:00.514Z,3.72
2019-06-07T08:41:30.426Z,6.35
2019-06-07T08:44:22.243Z,4.10
2019-06-07T08:46:36.395Z,5.80
2019-06-07T08:51:40.594Z,5.12
2019-06-07T08:54:22.429Z,5.33
2019-06-07T08:56:47.839Z,5.80
2019-06-07T08:59:20.337Z,4.87
2019-06-07T09:01:59.778Z,5.33
2019-06-07T09:04:31.063Z,3.80
2019-06-07T09:09:35.894Z,3.52
2019-06-07T09:19:45.680Z,6.28
2019-06-07T09:22:17.992Z,4.90
2019-06-07T09:24:51.994Z,4.42
2019-06-07T09:27:24.154Z,7.80
2019-06-07T09:30:04.728Z,4.90
2019-06-07T09:32:31.940Z,4.00
2019-06-07T09:35:10.714Z,5.03
2019-06-07T09:38:04.140Z,3.53
2019-06-07T09:40:24.107Z,4.23
2019-06-07T09:42:47.604Z,4.30
2019-06-07T09:47:50.493Z,3.80
2019-06-07T09:50:22.969Z,4.17
2019-06-07T09:53:02.765Z,6.13
2019-06-07T09:55:29.854Z,4.00
2019-06-07T09:58:45.392Z,3.43
2019-06-07T10:00:41.549Z,4.07
2019-06-07T10:03:20.153Z,3.80
2019-06-07T10:05:45.158Z,3.70
2019-06-07T10:10:50.059Z,2.47
2019-06-07T10:13:22.638Z,3.87
2019-06-07T10:15:54.949Z,2.45
2019-06-07T10:18:27.479Z,2.75
2019-06-07T10:20:59.546Z,2.87
2019-06-07T10:23:32.313Z,2.47
2019-06-07T10:26:05.956Z,2.20
2019-06-07T10:28:38.413Z,3.92
2019-06-07T10:31:11.417Z,1.80
2019-06-07T10:33:43.610Z,2.62
2019-06-07T10:36:16.232Z,5.58
2019-06-07T10:38:48.792Z,2.72
2019-06-07T10:41:21.590Z,2.02
2019-06-07T10:43:54.871Z,2.70
2019-06-07T10:46:27.346Z,2.80
2019-06-07T10:49:00.135Z,1.92
2019-06-07T10:51:33.586Z,3.45
2019-06-07T10:54:19.620Z,2.72
2019-06-07T10:56:40.036Z,1.65
2019-06-07T10:59:13.681Z,2.55
2019-06-07T11:01:46.396Z,1.95
2019-06-07T11:04:19.140Z,3.33
2019-06-07T11:06:51.347Z,1.77
2019-06-07T11:09:23.241Z,2.00
2019-06-07T11:11:55.879Z,3.52
2019-06-07T11:14:28.367Z,3.15
2019-06-07T11:17:00.198Z,3.33
2019-06-07T11:19:32.675Z,1.95
2019-06-07T11:22:06.049Z,4.37
2019-06-07T11:24:38.249Z,2.10
2019-06-07T11:27:11.646Z,2.77
2019-06-07T11:29:44.835Z,2.27
2019-06-07T11:32:16.629Z,3.27
2019-06-07T11:34:48.754Z,2.60
2019-06-07T11:37:20.606Z,2.60
2019-06-07T11:39:53.702Z,2.45
2019-06-07T11:42:26.140Z,2.05
2019-06-07T11:44:58.582Z,2.40
2019-06-07T11:47:31.182Z,2.40
2019-06-07T11:50:03.295Z,2.45
2019-06-07T11:52:35.832Z,2.45
2019-06-07T11:55:09.486Z,5.03
2019-06-07T11:57:42.900Z,3.85
2019-06-07T12:00:18.894Z,2.10
2019-06-07T12:02:51.241Z,2.83
2019-06-07T12:05:23.851Z,3.70
2019-06-07T12:07:57.157Z,3.10
2019-06-07T12:10:41.844Z,3.42
2019-06-07T12:13:08.448Z,2.98
2019-06-07T12:15:41.003Z,2.98
2019-06-07T12:18:13.517Z,7.00
2019-06-07T12:20:45.574Z,2.75
2019-06-07T12:23:18.122Z,3.22
2019-06-07T12:25:50.098Z,3.58
2019-06-07T12:28:24.968Z,2.80
2019-06-07T12:30:57.168Z,2.60
2019-06-07T12:36:11.876Z,2.40
2019-06-07T12:38:44.366Z,3.98
2019-06-07T12:41:18.241Z,2.33
2019-06-07T12:43:50.737Z,4.43
2019-06-07T12:46:28.399Z,3.08
2019-06-07T12:48:57.130Z,3.87
2019-06-07T12:51:29.229Z,2.87
2019-06-07T12:54:01.425Z,2.80
2019-06-07T12:56:33.232Z,2.40
2019-06-07T12:59:05.423Z,3.45
2019-06-07T13:01:37.504Z,8.63
2019-06-07T13:04:09.295Z,3.17
2019-06-07T13:06:41.781Z,2.50
2019-06-07T13:09:13.936Z,2.37
2019-06-07T13:11:46.169Z,2.77
2019-06-07T13:14:19.941Z,3.90
2019-06-07T13:16:51.855Z,2.95
2019-06-07T13:19:24.614Z,2.67
2019-06-07T13:21:57.007Z,4.12
2019-06-07T13:24:30.292Z,4.63
2019-06-07T13:27:02.852Z,3.50
2019-06-07T13:29:35.186Z,2.67
2019-06-07T13:32:07.447Z,2.77
2019-06-07T13:34:39.803Z,2.27
2019-06-07T13:37:11.902Z,4.22
2019-06-07T13:39:44.275Z,2.72
2019-06-07T13:42:16.466Z,4.10
2019-06-07T13:44:49.205Z,3.37
2019-06-07T13:47:23.128Z,2.20
2019-06-07T13:49:55.563Z,3.02
2019-06-07T13:52:28.430Z,3.17
2019-06-07T13:55:02.334Z,2.70
2019-06-07T13:57:34.018Z,3.58
2019-06-07T14:00:10.735Z,4.75
2019-06-07T14:02:42.114Z,3.15
2019-06-07T14:05:14.897Z,2.58
2019-06-07T14:07:47.728Z,5.33
2019-06-07T14:10:21.495Z,2.75
2019-06-07T14:12:54.083Z,4.47
2019-06-07T14:15:26.540Z,4.45
2019-06-07T14:17:59.032Z,2.65
2019-06-07T14:20:34.827Z,3.22
2019-06-07T14:23:08.502Z,3.27
2019-06-07T14:25:41.178Z,2.95
2019-06-07T14:28:13.660Z,2.67
2019-06-07T14:30:45.645Z,2.98
2019-06-07T14:33:17.755Z,3.50
2019-06-07T14:35:50.473Z,3.50
2019-06-07T14:38:23.052Z,4.87
2019-06-07T14:40:56.352Z,3.10
2019-06-07T14:43:31.755Z,4.45
2019-06-07T14:46:03.809Z,3.45
2019-06-07T14:48:36.564Z,3.00
2019-06-07T14:51:08.717Z,5.00
2019-06-07T14:53:40.828Z,3.58
2019-06-07T14:56:13.688Z,4.62
2019-06-07T14:58:45.837Z,3.40
2019-06-07T15:01:17.951Z,3.35
2019-06-07T15:03:50.353Z,3.65
2019-06-07T15:06:22.653Z,2.55
2019-06-07T15:08:54.707Z,3.02
2019-06-07T15:11:26.893Z,3.10
2019-06-07T15:13:59.666Z,3.35
2019-06-07T15:16:32.100Z,4.10
2019-06-07T15:19:04.666Z,2.83
2019-06-07T15:21:36.436Z,4.37
2019-06-07T15:24:08.514Z,4.05
2019-06-07T15:26:41.129Z,3.10
2019-06-07T15:29:13.303Z,2.92
2019-06-07T15:31:45.791Z,2.30
2019-06-07T15:34:18.574Z,3.40
2019-06-07T15:36:51.753Z,3.33
2019-06-07T15:39:24.161Z,2.70
2019-06-07T15:41:56.899Z,3.85
2019-06-07T15:44:29.683Z,2.40
2019-06-07T15:47:02.619Z,4.10
2019-06-07T15:49:36.079Z,2.70
2019-06-07T15:52:08.284Z,2.60
2019-06-07T15:54:40.951Z,3.75
2019-06-07T15:57:13.837Z,3.43
2019-06-07T15:59:45.814Z,2.52
2019-06-07T16:02:18.018Z,2.72
2019-06-07T16:04:50.214Z,2.92
2019-06-07T16:07:23.918Z,4.92
2019-06-07T16:09:56.445Z,2.52
2019-06-07T16:12:28.562Z,3.22
2019-06-07T16:15:00.545Z,3.75
2019-06-07T16:17:33.031Z,3.15
2019-06-07T16:20:06.559Z,4.65
2019-06-07T16:22:39.738Z,2.47
2019-06-07T16:25:22.444Z,3.60
2019-06-07T16:27:54.922Z,2.30
2019-06-07T16:30:34.470Z,4.28
2019-06-07T16:33:07.269Z,4.30
2019-06-07T16:35:39.111Z,3.58
2019-06-07T16:38:11.168Z,5.95
2019-06-07T16:40:44.634Z,3.87
2019-06-07T16:43:18.578Z,2.55
2019-06-07T16:45:51.479Z,2.80
2019-06-07T16:48:23.889Z,2.75
2019-06-07T16:50:56.046Z,3.55
2019-06-07T16:53:28.548Z,2.42
2019-06-07T16:56:00.825Z,3.65
2019-06-07T16:58:32.793Z,2.80
2019-06-07T17:01:05.587Z,3.05
2019-06-07T17:03:37.640Z,2.80
2019-06-07T17:06:10.094Z,4.60
2019-06-07T17:08:44.136Z,3.05
2019-06-07T17:11:16.637Z,3.30
2019-06-07T17:13:49.386Z,3.58
2019-06-07T17:16:21.559Z,2.85
2019-06-07T17:18:54.114Z,3.65
2019-06-07T17:21:26.505Z,3.40
2019-06-07T17:23:58.345Z,3.83
2019-06-07T17:26:30.802Z,4.67
2019-06-07T17:29:02.817Z,3.30
2019-06-07T17:31:35.586Z,3.10
2019-06-07T17:34:07.691Z,3.60
2019-06-07T17:36:40.270Z,3.27
2019-06-07T17:39:12.706Z,3.00
2019-06-07T17:41:58.614Z,3.95
2019-06-07T17:44:22.600Z,2.65
2019-06-07T17:46:54.743Z,4.60
2019-06-07T17:49:27.875Z,6.67
2019-06-07T17:52:00.137Z,5.78
2019-06-07T17:54:32.848Z,4.75
2019-06-07T17:57:04.896Z,2.87
2019-06-07T17:59:40.673Z,4.00
2019-06-07T18:02:15.533Z,3.12
2019-06-07T18:04:47.591Z,4.28
2019-06-07T18:07:21.672Z,2.63
2019-06-07T18:09:54.836Z,3.10
2019-06-07T18:12:27.291Z,3.22
2019-06-07T18:14:59.525Z,4.25
2019-06-07T18:17:34.843Z,3.87
2019-06-07T18:20:07.480Z,6.42
2019-06-07T18:22:39.951Z,3.62
2019-06-07T18:25:12.733Z,3.17
2019-06-07T18:27:46.476Z,3.40
2019-06-07T18:30:19.247Z,3.27
2019-06-07T18:32:51.269Z,5.67
2019-06-07T18:37:55.169Z,5.22
2019-06-07T18:40:28.870Z,4.33
2019-06-07T18:43:00.971Z,3.33
2019-06-07T18:45:33.040Z,6.80
2019-06-07T18:50:39.233Z,5.92
2019-06-07T18:53:11.686Z,5.60
2019-06-07T18:55:43.555Z,5.53
2019-06-07T18:58:16.236Z,5.72
2019-06-07T19:00:49.836Z,8.60
2019-06-07T19:03:22.375Z,7.90
2019-06-07T19:05:56.257Z,6.67
2019-06-07T19:08:28.692Z,10.53
2019-06-07T19:13:31.806Z,5.30
2019-06-07T19:16:04.249Z,7.25
2019-06-07T19:18:37.045Z,3.80
2019-06-07T19:21:10.761Z,5.60
2019-06-07T19:23:43.227Z,8.33
2019-06-07T19:28:46.955Z,4.00
2019-06-07T19:31:18.764Z,5.62
2019-06-07T19:33:53.041Z,6.37
2019-06-07T19:36:25.596Z,7.62
2019-06-07T19:38:57.976Z,6.60
2019-06-07T19:41:30.553Z,3.95
2019-06-07T19:44:03.414Z,3.95
2019-06-07T19:46:35.878Z,6.83
2019-06-07T19:49:08.257Z,4.93
2019-06-07T19:51:40.350Z,8.30
2019-06-07T19:54:12.836Z,4.58
2019-06-07T19:59:16.285Z,4.55
2019-06-07T20:01:48.591Z,3.02
2019-06-07T20:06:54.030Z,1.75
2019-06-07T20:09:26.435Z,4.05
2019-06-07T20:14:30.627Z,3.77
2019-06-07T20:17:05.477Z,10.98
2019-06-07T20:19:38.156Z,3.10
2019-06-07T20:22:11.129Z,0.88
2019-06-07T20:24:43.297Z,2.57
2019-06-07T20:27:19.610Z,1.10
2019-06-07T20:29:52.246Z,1.72
2019-06-07T20:32:26.353Z,0.45
2019-06-07T20:34:59.677Z,0.70
2019-06-07T20:37:32.671Z,30.97
2019-06-07T20:40:19.486Z,1.77
2019-06-07T20:42:41.071Z,0.80
2019-06-07T20:45:14.876Z,0.73
2019-06-07T20:47:47.690Z,6.33
2019-06-07T20:52:53.676Z,0.30
2019-06-07T20:55:27.002Z,0.50
2019-06-07T20:58:00.825Z,3.23
2019-06-07T21:00:35.855Z,3.50
2019-06-07T21:03:09.496Z,3.23
2019-06-07T21:05:42.574Z,3.73
2019-06-07T21:10:46.611Z,0.25
2019-06-07T21:13:19.170Z,2.22
2019-06-07T21:15:52.385Z,0.50
2019-06-07T21:18:25.311Z,1.13
2019-06-07T21:23:29.684Z,2.58
2019-06-07T21:26:02.903Z,0.20
2019-06-07T21:28:35.188Z,1.70
2019-06-07T21:31:08.214Z,0.98
2019-06-07T21:33:40.958Z,0.67
2019-06-07T21:36:13.056Z,2.00
2019-06-07T21:38:45.381Z,2.58
2019-06-07T21:41:18.126Z,3.12
2019-06-07T21:43:51.137Z,0.50
2019-06-07T21:46:23.831Z,0.87
2019-06-07T21:48:56.527Z,1.07
2019-06-07T21:51:29.264Z,0.40
2019-06-07T21:54:02.852Z,0.45
2019-06-07T21:56:36.499Z,2.10
2019-06-07T21:59:09.677Z,4.08
2019-06-07T22:01:42.016Z,0.60
2019-06-07T22:04:15.537Z,1.62
2019-06-07T22:06:49.499Z,0.73
2019-06-07T22:09:22.508Z,2.60
2019-06-07T22:11:55.037Z,1.47
2019-06-07T22:14:27.208Z,2.30
2019-06-07T22:16:59.717Z,2.80
2019-06-07T22:19:32.591Z,0.70
2019-06-07T22:24:37.039Z,1.43
2019-06-07T22:27:09.547Z,0.80
2019-06-07T22:29:42.645Z,2.65
2019-06-07T22:34:48.243Z,1.22
2019-06-07T22:37:23.390Z,1.80
2019-06-07T22:39:54.549Z,1.80
2019-06-07T22:42:27.050Z,3.60
2019-06-07T22:45:00.519Z,1.17
2019-06-07T22:47:34.325Z,0.50
2019-06-07T22:50:08.383Z,2.60
2019-06-07T22:52:41.391Z,2.10
2019-06-07T22:55:15.889Z,1.42
2019-06-07T22:57:56.689Z,0.70
2019-06-07T23:00:31.229Z,0.97
2019-06-07T23:03:03.670Z,0.83
2019-06-07T23:05:36.020Z,3.37
2019-06-07T23:08:08.790Z,0.57
2019-06-07T23:13:13.652Z,0.47
2019-06-07T23:15:45.990Z,1.13
2019-06-07T23:18:18.069Z,1.82
2019-06-07T23:20:50.689Z,0.77
2019-06-07T23:23:23.603Z,2.27
2019-06-07T23:25:56.392Z,1.20
2019-06-07T23:28:28.858Z,0.62
2019-06-07T23:31:01.290Z,1.07
2019-06-07T23:33:33.968Z,0.93
2019-06-07T23:36:06.615Z,0.72
2019-06-07T23:38:38.740Z,2.62
2019-06-07T23:41:11.579Z,1.93
2019-06-07T23:43:44.215Z,3.17
2019-06-07T23:46:17.459Z,2.17
2019-06-07T23:48:50.438Z,1.30
2019-06-07T23:51:22.834Z,1.07
2019-06-07T23:53:55.315Z,1.02
2019-06-07T23:56:27.754Z,3.98
2019-06-07T23:59:00.590Z,4.00
